sensor_id;sensor_type;location;lat;lon;timestamp;pressure;altitude;pressure_sealevel;temperature;humidity
21644;BME280;10983;51.982;9.226;2023-10-19T07:05:28;98456.22;;;10.84;100.00
21644;BME280;10983;51.982;9.226;2023-10-19T07:07:57;98478.00;;;10.96;100.00
21644;BME280;10983;51.982;9.226;2023-10-19T07:10:26;98480.94;;;10.89;100.00
21644;BME280;10983;51.982;9.226;2023-10-19T07:12:55;98493.66;;;11.02;100.00
21644;BME280;10983;51.982;9.226;2023-10-19T07:15:24;98493.13;;;11.05;100.00
21644;BME280;10983;51.982;9.226;2023-10-19T07:17:56;98502.16;;;11.04;100.00
21644;BME280;10983;51.982;9.226;2023-10-19T07:20:24;98506.41;;;11.00;100.00
21644;BME280;10983;51.982;9.226;2023-10-19T07:23:00;98509.06;;;11.00;100.00
21644;BME280;10983;51.982;9.226;2023-10-19T07:25:34;98506.94;;;11.07;100.00
21644;BME280;10983;51.982;9.226;2023-10-19T07:28:09;98506.34;;;11.20;100.00
21644;BME280;10983;51.982;9.226;2023-10-19T07:30:37;98519.63;;;11.35;100.00
21644;BME280;10983;51.982;9.226;2023-10-19T07:33:04;98517.19;;;11.38;100.00
21644;BME280;10983;51.982;9.226;2023-10-19T07:35:34;98507.66;;;11.27;100.00
21644;BME280;10983;51.982;9.226;2023-10-19T07:38:05;98524.38;;;11.38;100.00
21644;BME280;10983;51.982;9.226;2023-10-19T07:40:34;98519.34;;;11.36;100.00
21644;BME280;10983;51.982;9.226;2023-10-19T07:43:05;98510.00;;;11.39;100.00
21644;BME280;10983;51.982;9.226;2023-10-19T07:45:35;98521.13;;;11.51;100.00
21644;BME280;10983;51.982;9.226;2023-10-19T07:48:04;98496.94;;;11.52;100.00
21644;BME280;10983;51.982;9.226;2023-10-19T07:50:34;98523.38;;;11.82;100.00
21644;BME280;10983;51.982;9.226;2023-10-19T07:53:03;98518.03;;;11.87;100.00
21644;BME280;10983;51.982;9.226;2023-10-19T07:55:32;98518.13;;;12.05;100.00
21644;BME280;10983;51.982;9.226;2023-10-19T07:58:00;98509.97;;;12.30;100.00
21644;BME280;10983;51.982;9.226;2023-10-19T08:00:30;98518.56;;;12.50;100.00
21644;BME280;10983;51.982;9.226;2023-10-19T08:03:00;98514.69;;;12.66;100.00
21644;BME280;10983;51.982;9.226;2023-10-19T08:05:31;98502.09;;;13.00;100.00
21644;BME280;10983;51.982;9.226;2023-10-19T08:08:00;98511.97;;;13.23;100.00
21644;BME280;10983;51.982;9.226;2023-10-19T08:10:34;98503.97;;;13.41;100.00
21644;BME280;10983;51.982;9.226;2023-10-19T08:13:04;98497.06;;;13.58;100.00
21644;BME280;10983;51.982;9.226;2023-10-19T08:15:31;98467.63;;;13.63;100.00
21644;BME280;10983;51.982;9.226;2023-10-19T08:17:59;98444.59;;;13.67;100.00
21644;BME280;10983;51.982;9.226;2023-10-19T08:20:27;98414.84;;;13.74;100.00
21644;BME280;10983;51.982;9.226;2023-10-19T08:22:59;98372.16;;;13.87;100.00
21644;BME280;10983;51.982;9.226;2023-10-19T08:25:29;98280.63;;;13.95;100.00
21644;BME280;10983;51.982;9.226;2023-10-19T08:28:02;98243.75;;;14.10;100.00
21644;BME280;10983;51.982;9.226;2023-10-19T08:30:29;98208.69;;;14.39;100.00
21644;BME280;10983;51.982;9.226;2023-10-19T08:32:57;98145.81;;;14.63;100.00
21644;BME280;10983;51.982;9.226;2023-10-19T08:35:26;98107.13;;;14.91;100.00
21644;BME280;10983;51.982;9.226;2023-10-19T08:37:54;98044.97;;;14.94;100.00
21644;BME280;10983;51.982;9.226;2023-10-19T08:40:32;97983.72;;;14.92;100.00
21644;BME280;10983;51.982;9.226;2023-10-19T08:42:59;97944.25;;;15.06;100.00
21644;BME280;10983;51.982;9.226;2023-10-19T08:45:28;97913.28;;;15.22;100.00
21644;BME280;10983;51.982;9.226;2023-10-19T08:48:00;97886.50;;;15.22;100.00
21644;BME280;10983;51.982;9.226;2023-10-19T08:50:32;97865.28;;;15.25;100.00
21644;BME280;10983;51.982;9.226;2023-10-19T08:53:10;97855.66;;;15.24;100.00
21644;BME280;10983;51.982;9.226;2023-10-19T08:55:40;97855.81;;;15.45;100.00
21644;BME280;10983;51.982;9.226;2023-10-19T08:58:16;97857.41;;;15.46;100.00
21644;BME280;10983;51.982;9.226;2023-10-19T09:00:48;97850.47;;;15.36;100.00
21644;BME280;10983;51.982;9.226;2023-10-19T09:03:18;97855.50;;;15.29;100.00
21644;BME280;10983;51.982;9.226;2023-10-19T09:05:46;97867.47;;;15.49;100.00
21644;BME280;10983;51.982;9.226;2023-10-19T09:08:15;97842.44;;;15.53;100.00
21644;BME280;10983;51.982;9.226;2023-10-19T09:10:48;97875.50;;;15.82;100.00
21644;BME280;10983;51.982;9.226;2023-10-19T09:13:20;97884.00;;;16.55;100.00
21644;BME280;10983;51.982;9.226;2023-10-19T09:15:51;97890.34;;;16.88;100.00
21644;BME280;10983;51.982;9.226;2023-10-19T09:18:23;97907.38;;;16.92;100.00
21644;BME280;10983;51.982;9.226;2023-10-19T09:20:54;97930.47;;;16.85;100.00
21644;BME280;10983;51.982;9.226;2023-10-19T09:23:25;97928.88;;;16.92;100.00
21644;BME280;10983;51.982;9.226;2023-10-19T09:25:56;97975.56;;;16.54;100.00
21644;BME280;10983;51.982;9.226;2023-10-19T09:28:24;97968.88;;;16.77;100.00
21644;BME280;10983;51.982;9.226;2023-10-19T09:30:53;97988.75;;;16.76;100.00
21644;BME280;10983;51.982;9.226;2023-10-19T09:33:22;97998.13;;;16.53;100.00
21644;BME280;10983;51.982;9.226;2023-10-19T09:35:51;97996.88;;;16.59;100.00
21644;BME280;10983;51.982;9.226;2023-10-19T09:38:22;97990.06;;;17.07;100.00
21644;BME280;10983;51.982;9.226;2023-10-19T09:40:52;97989.03;;;17.57;100.00
21644;BME280;10983;51.982;9.226;2023-10-19T09:43:26;98014.28;;;17.93;100.00
21644;BME280;10983;51.982;9.226;2023-10-19T09:46:01;98023.84;;;18.02;100.00
21644;BME280;10983;51.982;9.226;2023-10-19T09:48:39;98048.97;;;17.57;100.00
21644;BME280;10983;51.982;9.226;2023-10-19T09:51:09;98055.53;;;17.40;100.00
21644;BME280;10983;51.982;9.226;2023-10-19T09:53:45;98050.69;;;17.16;100.00
21644;BME280;10983;51.982;9.226;2023-10-19T09:56:20;98052.28;;;17.09;100.00
21644;BME280;10983;51.982;9.226;2023-10-19T09:58:51;98036.78;;;17.60;100.00
21644;BME280;10983;51.982;9.226;2023-10-19T10:01:21;98026.91;;;17.72;100.00
21644;BME280;10983;51.982;9.226;2023-10-19T10:03:50;98046.81;;;18.00;100.00
21644;BME280;10983;51.982;9.226;2023-10-19T10:06:28;98050.66;;;18.40;100.00
21644;BME280;10983;51.982;9.226;2023-10-19T10:09:00;98062.91;;;18.49;100.00
21644;BME280;10983;51.982;9.226;2023-10-19T10:11:29;98070.28;;;18.20;100.00
21644;BME280;10983;51.982;9.226;2023-10-19T10:13:58;98068.25;;;18.17;100.00
21644;BME280;10983;51.982;9.226;2023-10-19T10:16:29;98080.00;;;18.04;100.00
21644;BME280;10983;51.982;9.226;2023-10-19T10:18:58;98071.78;;;17.80;100.00
21644;BME280;10983;51.982;9.226;2023-10-19T10:21:27;98067.84;;;17.98;100.00
21644;BME280;10983;51.982;9.226;2023-10-19T10:23:57;98070.88;;;17.97;100.00
21644;BME280;10983;51.982;9.226;2023-10-19T10:26:27;98066.47;;;17.92;100.00
21644;BME280;10983;51.982;9.226;2023-10-19T10:29:10;98061.41;;;18.19;100.00
21644;BME280;10983;51.982;9.226;2023-10-19T10:31:45;98055.09;;;18.56;100.00
21644;BME280;10983;51.982;9.226;2023-10-19T10:34:45;98063.06;;;18.97;100.00
21644;BME280;10983;51.982;9.226;2023-10-19T10:37:15;98069.88;;;18.82;100.00
21644;BME280;10983;51.982;9.226;2023-10-19T10:39:43;98072.06;;;18.68;100.00
21644;BME280;10983;51.982;9.226;2023-10-19T10:42:16;98076.66;;;18.68;100.00
21644;BME280;10983;51.982;9.226;2023-10-19T10:44:44;98079.19;;;18.85;100.00
21644;BME280;10983;51.982;9.226;2023-10-19T10:47:16;98086.91;;;18.54;100.00
21644;BME280;10983;51.982;9.226;2023-10-19T10:49:50;98093.81;;;17.94;100.00
21644;BME280;10983;51.982;9.226;2023-10-19T10:52:28;98091.59;;;17.39;100.00
21644;BME280;10983;51.982;9.226;2023-10-19T10:54:57;98081.38;;;17.07;100.00
21644;BME280;10983;51.982;9.226;2023-10-19T10:57:31;98047.13;;;17.04;100.00
21644;BME280;10983;51.982;9.226;2023-10-19T11:00:04;98048.63;;;17.22;100.00
21644;BME280;10983;51.982;9.226;2023-10-19T11:02:34;98048.38;;;17.52;100.00
21644;BME280;10983;51.982;9.226;2023-10-19T11:05:04;98030.47;;;17.56;100.00
21644;BME280;10983;51.982;9.226;2023-10-19T11:07:39;98025.22;;;17.88;100.00
21644;BME280;10983;51.982;9.226;2023-10-19T11:10:07;98030.03;;;18.23;100.00
21644;BME280;10983;51.982;9.226;2023-10-19T11:12:36;98027.00;;;18.25;100.00
21644;BME280;10983;51.982;9.226;2023-10-19T11:15:06;98029.81;;;18.08;100.00
21644;BME280;10983;51.982;9.226;2023-10-19T11:17:43;98052.75;;;17.85;100.00
21644;BME280;10983;51.982;9.226;2023-10-19T11:20:20;98048.34;;;18.30;100.00
21644;BME280;10983;51.982;9.226;2023-10-19T11:22:49;98048.28;;;18.38;100.00
21644;BME280;10983;51.982;9.226;2023-10-19T11:25:17;98052.47;;;18.80;100.00
21644;BME280;10983;51.982;9.226;2023-10-19T11:27:45;98064.38;;;19.11;100.00
21644;BME280;10983;51.982;9.226;2023-10-19T11:30:23;98073.84;;;19.76;100.00
21644;BME280;10983;51.982;9.226;2023-10-19T11:32:52;98077.22;;;19.73;100.00
21644;BME280;10983;51.982;9.226;2023-10-19T11:35:24;98076.88;;;20.11;100.00
21644;BME280;10983;51.982;9.226;2023-10-19T11:37:52;98089.72;;;19.90;100.00
21644;BME280;10983;51.982;9.226;2023-10-19T11:40:20;98082.75;;;19.65;100.00
21644;BME280;10983;51.982;9.226;2023-10-19T11:42:49;98092.84;;;19.68;100.00
21644;BME280;10983;51.982;9.226;2023-10-19T11:45:17;98085.84;;;19.43;100.00
21644;BME280;10983;51.982;9.226;2023-10-19T11:47:45;98074.31;;;19.55;100.00
21644;BME280;10983;51.982;9.226;2023-10-19T11:50:16;98075.53;;;19.45;100.00
21644;BME280;10983;51.982;9.226;2023-10-19T11:52:46;98092.16;;;19.71;100.00
21644;BME280;10983;51.982;9.226;2023-10-19T11:55:14;98088.25;;;20.04;100.00
21644;BME280;10983;51.982;9.226;2023-10-19T11:57:42;98084.38;;;20.41;100.00
21644;BME280;10983;51.982;9.226;2023-10-19T12:00:11;98093.75;;;20.59;100.00
21644;BME280;10983;51.982;9.226;2023-10-19T12:02:48;98088.19;;;20.40;100.00
21644;BME280;10983;51.982;9.226;2023-10-19T12:05:17;98092.50;;;20.95;100.00
21644;BME280;10983;51.982;9.226;2023-10-19T12:07:44;98106.19;;;22.06;100.00
21644;BME280;10983;51.982;9.226;2023-10-19T12:10:12;98124.56;;;23.22;100.00
21644;BME280;10983;51.982;9.226;2023-10-19T12:12:40;98146.81;;;23.54;100.00
21644;BME280;10983;51.982;9.226;2023-10-19T12:15:26;98154.34;;;23.00;100.00
21644;BME280;10983;51.982;9.226;2023-10-19T12:17:55;98162.78;;;21.96;100.00
21644;BME280;10983;51.982;9.226;2023-10-19T12:20:24;98162.34;;;21.36;100.00
21644;BME280;10983;51.982;9.226;2023-10-19T12:22:58;98143.69;;;20.02;100.00
21644;BME280;10983;51.982;9.226;2023-10-19T12:25:27;98160.28;;;19.68;100.00
21644;BME280;10983;51.982;9.226;2023-10-19T12:28:18;98162.34;;;20.07;100.00
21644;BME280;10983;51.982;9.226;2023-10-19T12:30:46;98159.34;;;20.71;100.00
21644;BME280;10983;51.982;9.226;2023-10-19T12:33:14;98167.09;;;21.12;100.00
21644;BME280;10983;51.982;9.226;2023-10-19T12:35:43;98169.03;;;21.11;100.00
21644;BME280;10983;51.982;9.226;2023-10-19T12:38:18;98160.16;;;21.69;100.00
21644;BME280;10983;51.982;9.226;2023-10-19T12:40:53;98149.97;;;22.77;100.00
21644;BME280;10983;51.982;9.226;2023-10-19T12:43:24;98159.06;;;23.03;100.00
21644;BME280;10983;51.982;9.226;2023-10-19T12:45:52;98141.81;;;22.96;100.00
21644;BME280;10983;51.982;9.226;2023-10-19T12:48:21;98166.63;;;22.79;100.00
21644;BME280;10983;51.982;9.226;2023-10-19T12:50:53;98149.38;;;23.43;100.00
21644;BME280;10983;51.982;9.226;2023-10-19T12:53:21;98148.66;;;23.46;100.00
21644;BME280;10983;51.982;9.226;2023-10-19T12:55:53;98155.16;;;24.31;100.00
21644;BME280;10983;51.982;9.226;2023-10-19T12:58:20;98144.03;;;24.39;100.00
21644;BME280;10983;51.982;9.226;2023-10-19T13:00:50;98163.31;;;24.31;100.00
21644;BME280;10983;51.982;9.226;2023-10-19T13:03:18;98158.63;;;24.54;100.00
21644;BME280;10983;51.982;9.226;2023-10-19T13:05:51;98160.97;;;24.55;100.00
21644;BME280;10983;51.982;9.226;2023-10-19T13:08:20;98165.44;;;23.96;100.00
21644;BME280;10983;51.982;9.226;2023-10-19T13:10:48;98148.19;;;23.22;100.00
21644;BME280;10983;51.982;9.226;2023-10-19T13:13:18;98159.22;;;22.76;100.00
21644;BME280;10983;51.982;9.226;2023-10-19T13:15:50;98164.16;;;22.21;100.00
21644;BME280;10983;51.982;9.226;2023-10-19T13:18:19;98151.78;;;21.89;100.00
21644;BME280;10983;51.982;9.226;2023-10-19T13:20:48;98148.09;;;21.51;100.00
21644;BME280;10983;51.982;9.226;2023-10-19T13:23:16;98146.44;;;21.19;100.00
21644;BME280;10983;51.982;9.226;2023-10-19T13:25:49;98142.63;;;20.93;100.00
21644;BME280;10983;51.982;9.226;2023-10-19T13:28:20;98128.34;;;20.81;100.00
21644;BME280;10983;51.982;9.226;2023-10-19T13:30:50;98127.06;;;20.51;100.00
21644;BME280;10983;51.982;9.226;2023-10-19T13:33:20;98118.81;;;20.20;100.00
21644;BME280;10983;51.982;9.226;2023-10-19T13:35:48;98134.25;;;19.96;100.00
21644;BME280;10983;51.982;9.226;2023-10-19T13:38:18;98129.91;;;19.59;100.00
21644;BME280;10983;51.982;9.226;2023-10-19T13:40:47;98136.31;;;19.43;100.00
21644;BME280;10983;51.982;9.226;2023-10-19T13:43:18;98125.28;;;19.36;100.00
21644;BME280;10983;51.982;9.226;2023-10-19T13:45:49;98123.53;;;19.08;100.00
21644;BME280;10983;51.982;9.226;2023-10-19T13:48:19;98104.28;;;18.97;100.00
21644;BME280;10983;51.982;9.226;2023-10-19T13:50:48;98096.19;;;18.97;100.00
21644;BME280;10983;51.982;9.226;2023-10-19T13:53:16;98086.50;;;19.28;100.00
21644;BME280;10983;51.982;9.226;2023-10-19T13:55:44;98089.72;;;19.90;100.00
21644;BME280;10983;51.982;9.226;2023-10-19T13:58:16;98093.75;;;20.59;100.00
21644;BME280;10983;51.982;9.226;2023-10-19T14:00:44;98106.03;;;21.53;100.00
21644;BME280;10983;51.982;9.226;2023-10-19T14:03:12;98103.53;;;22.25;100.00
21644;BME280;10983;51.982;9.226;2023-10-19T14:05:41;98118.84;;;22.71;100.00
21644;BME280;10983;51.982;9.226;2023-10-19T14:08:15;98116.41;;;22.47;100.00
21644;BME280;10983;51.982;9.226;2023-10-19T14:10:49;98103.72;;;22.51;100.00
21644;BME280;10983;51.982;9.226;2023-10-19T14:13:23;98118.69;;;21.65;100.00
21644;BME280;10983;51.982;9.226;2023-10-19T14:15:51;98110.91;;;21.05;100.00
21644;BME280;10983;51.982;9.226;2023-10-19T14:18:24;98120.47;;;20.25;100.00
21644;BME280;10983;51.982;9.226;2023-10-19T14:20:51;98122.50;;;19.56;100.00
21644;BME280;10983;51.982;9.226;2023-10-19T14:23:21;98103.38;;;19.37;100.00
21644;BME280;10983;51.982;9.226;2023-10-19T14:25:50;98099.47;;;19.03;100.00
21644;BME280;10983;51.982;9.226;2023-10-19T14:28:18;98085.94;;;18.91;100.00
21644;BME280;10983;51.982;9.226;2023-10-19T14:30:47;98068.41;;;18.73;100.00
21644;BME280;10983;51.982;9.226;2023-10-19T14:33:19;98065.75;;;18.64;100.00
21644;BME280;10983;51.982;9.226;2023-10-19T14:35:51;98051.66;;;18.47;100.00
21644;BME280;10983;51.982;9.226;2023-10-19T14:38:22;98029.94;;;18.52;100.00
21644;BME280;10983;51.982;9.226;2023-10-19T14:40:54;98015.72;;;18.63;100.00
21644;BME280;10983;51.982;9.226;2023-10-19T14:43:23;98021.19;;;18.99;100.00
21644;BME280;10983;51.982;9.226;2023-10-19T14:45:53;98020.34;;;19.07;100.00
21644;BME280;10983;51.982;9.226;2023-10-19T14:48:27;98015.00;;;19.43;100.00
21644;BME280;10983;51.982;9.226;2023-10-19T14:50:56;98006.97;;;19.70;100.00
21644;BME280;10983;51.982;9.226;2023-10-19T14:53:36;98010.13;;;19.96;100.00
21644;BME280;10983;51.982;9.226;2023-10-19T14:56:04;98001.81;;;19.89;100.00
21644;BME280;10983;51.982;9.226;2023-10-19T14:58:36;98018.69;;;19.62;100.00
21644;BME280;10983;51.982;9.226;2023-10-19T15:01:07;98019.81;;;19.37;100.00
21644;BME280;10983;51.982;9.226;2023-10-19T15:03:47;98006.81;;;18.95;100.00
21644;BME280;10983;51.982;9.226;2023-10-19T15:06:17;98011.56;;;18.98;100.00
21644;BME280;10983;51.982;9.226;2023-10-19T15:08:44;98007.69;;;19.08;100.00
21644;BME280;10983;51.982;9.226;2023-10-19T15:11:16;98010.13;;;18.68;100.00
21644;BME280;10983;51.982;9.226;2023-10-19T15:13:44;97981.38;;;18.60;100.00
21644;BME280;10983;51.982;9.226;2023-10-19T15:16:14;97918.03;;;17.99;100.00
21644;BME280;10983;51.982;9.226;2023-10-19T15:18:45;97987.94;;;18.39;100.00
21644;BME280;10983;51.982;9.226;2023-10-19T15:21:16;97973.91;;;18.34;100.00
21644;BME280;10983;51.982;9.226;2023-10-19T15:23:43;97969.06;;;17.87;100.00
21644;BME280;10983;51.982;9.226;2023-10-19T15:26:16;97948.00;;;17.89;100.00
21644;BME280;10983;51.982;9.226;2023-10-19T15:28:46;97925.25;;;17.66;100.00
21644;BME280;10983;51.982;9.226;2023-10-19T15:31:16;97910.72;;;17.46;100.00
21644;BME280;10983;51.982;9.226;2023-10-19T15:33:48;97905.34;;;17.18;100.00
21644;BME280;10983;51.982;9.226;2023-10-19T15:36:16;97905.44;;;17.30;100.00
21644;BME280;10983;51.982;9.226;2023-10-19T15:38:43;97869.91;;;16.95;100.00
21644;BME280;10983;51.982;9.226;2023-10-19T15:41:12;97849.38;;;16.99;100.00
21644;BME280;10983;51.982;9.226;2023-10-19T15:43:42;97842.94;;;16.92;100.00
21644;BME280;10983;51.982;9.226;2023-10-19T15:46:09;97832.63;;;16.74;100.00
21644;BME280;10983;51.982;9.226;2023-10-19T15:48:43;97803.38;;;16.81;100.00
21644;BME280;10983;51.982;9.226;2023-10-19T15:51:12;97784.31;;;16.74;100.00
21644;BME280;10983;51.982;9.226;2023-10-19T15:53:40;97762.69;;;16.70;100.00
21644;BME280;10983;51.982;9.226;2023-10-19T15:56:07;97736.78;;;16.74;100.00
21644;BME280;10983;51.982;9.226;2023-10-19T15:58:35;97747.06;;;16.92;100.00
21644;BME280;10983;51.982;9.226;2023-10-19T16:01:04;97736.66;;;16.91;100.00
21644;BME280;10983;51.982;9.226;2023-10-19T16:03:35;97729.31;;;16.80;100.00
21644;BME280;10983;51.982;9.226;2023-10-19T16:06:04;97715.63;;;16.73;100.00
21644;BME280;10983;51.982;9.226;2023-10-19T16:08:32;97702.94;;;16.61;100.00
21644;BME280;10983;51.982;9.226;2023-10-19T16:11:04;97694.00;;;16.29;100.00
21644;BME280;10983;51.982;9.226;2023-10-19T16:13:36;97678.28;;;16.10;100.00
21644;BME280;10983;51.982;9.226;2023-10-19T16:16:08;97654.06;;;15.98;100.00
21644;BME280;10983;51.982;9.226;2023-10-19T16:18:38;97645.00;;;15.91;100.00
21644;BME280;10983;51.982;9.226;2023-10-19T16:21:07;97657.06;;;15.68;100.00
21644;BME280;10983;51.982;9.226;2023-10-19T16:23:35;97643.69;;;15.60;100.00
21644;BME280;10983;51.982;9.226;2023-10-19T16:26:04;97642.47;;;15.57;100.00
21644;BME280;10983;51.982;9.226;2023-10-19T16:28:34;97634.31;;;15.45;100.00
21644;BME280;10983;51.982;9.226;2023-10-19T16:31:02;97637.97;;;15.32;100.00
21644;BME280;10983;51.982;9.226;2023-10-19T16:33:30;97638.94;;;15.28;100.00
21644;BME280;10983;51.982;9.226;2023-10-19T16:35:58;97634.22;;;15.16;100.00
21644;BME280;10983;51.982;9.226;2023-10-19T16:38:26;97640.97;;;15.14;100.00
21644;BME280;10983;51.982;9.226;2023-10-19T16:41:00;97624.31;;;14.92;100.00
21644;BME280;10983;51.982;9.226;2023-10-19T16:43:28;97642.31;;;14.83;100.00
21644;BME280;10983;51.982;9.226;2023-10-19T16:46:01;97657.53;;;14.99;100.00
21644;BME280;10983;51.982;9.226;2023-10-19T16:48:31;97664.47;;;14.92;100.00
21644;BME280;10983;51.982;9.226;2023-10-19T16:51:04;97662.13;;;14.82;100.00
21644;BME280;10983;51.982;9.226;2023-10-19T16:53:34;97691.72;;;14.85;100.00
21644;BME280;10983;51.982;9.226;2023-10-19T16:56:03;97688.91;;;14.73;100.00
21644;BME280;10983;51.982;9.226;2023-10-19T16:58:31;97702.88;;;14.70;100.00
21644;BME280;10983;51.982;9.226;2023-10-19T17:00:59;97711.84;;;14.58;100.00
21644;BME280;10983;51.982;9.226;2023-10-19T17:03:27;97746.34;;;14.76;100.00
21644;BME280;10983;51.982;9.226;2023-10-19T17:05:59;97745.06;;;14.73;100.00
21644;BME280;10983;51.982;9.226;2023-10-19T17:08:29;97750.56;;;14.60;100.00
21644;BME280;10983;51.982;9.226;2023-10-19T17:10:58;97753.25;;;14.60;100.00
21644;BME280;10983;51.982;9.226;2023-10-19T17:13:28;97757.91;;;14.46;100.00
21644;BME280;10983;51.982;9.226;2023-10-19T17:15:56;97769.75;;;14.54;100.00
21644;BME280;10983;51.982;9.226;2023-10-19T17:18:24;97771.66;;;14.61;100.00
21644;BME280;10983;51.982;9.226;2023-10-19T17:20:52;97774.31;;;14.70;100.00
21644;BME280;10983;51.982;9.226;2023-10-19T17:23:27;97778.22;;;14.47;100.00
21644;BME280;10983;51.982;9.226;2023-10-19T17:26:02;97789.28;;;14.24;100.00
21644;BME280;10983;51.982;9.226;2023-10-19T17:28:32;97770.25;;;14.17;100.00
21644;BME280;10983;51.982;9.226;2023-10-19T17:31:03;97794.56;;;14.37;100.00
21644;BME280;10983;51.982;9.226;2023-10-19T17:33:39;97797.34;;;14.32;100.00
21644;BME280;10983;51.982;9.226;2023-10-19T17:36:07;97804.88;;;14.22;100.00
21644;BME280;10983;51.982;9.226;2023-10-19T17:38:40;97809.00;;;14.36;100.00
21644;BME280;10983;51.982;9.226;2023-10-19T17:41:09;97809.97;;;14.40;100.00
21644;BME280;10983;51.982;9.226;2023-10-19T17:43:38;97804.63;;;14.49;100.00
21644;BME280;10983;51.982;9.226;2023-10-19T17:46:11;97794.44;;;14.51;100.00
21644;BME280;10983;51.982;9.226;2023-10-19T17:48:47;97793.00;;;14.45;100.00
21644;BME280;10983;51.982;9.226;2023-10-19T17:51:16;97775.66;;;14.34;100.00
21644;BME280;10983;51.982;9.226;2023-10-19T17:53:46;97782.16;;;14.50;100.00
21644;BME280;10983;51.982;9.226;2023-10-19T17:56:15;97766.88;;;14.42;100.00
21644;BME280;10983;51.982;9.226;2023-10-19T17:58:46;97771.28;;;14.38;100.00
21644;BME280;10983;51.982;9.226;2023-10-19T18:01:16;97772.34;;;14.37;100.00
21644;BME280;10983;51.982;9.226;2023-10-19T18:03:48;97770.88;;;14.22;100.00
21644;BME280;10983;51.982;9.226;2023-10-19T18:06:18;97778.56;;;14.15;100.00
21644;BME280;10983;51.982;9.226;2023-10-19T18:08:45;97802.81;;;14.19;100.00
21644;BME280;10983;51.982;9.226;2023-10-19T18:11:15;97810.06;;;13.97;100.00
21644;BME280;10983;51.982;9.226;2023-10-19T18:13:43;97813.34;;;13.94;100.00
21644;BME280;10983;51.982;9.226;2023-10-19T18:16:18;97826.72;;;13.94;100.00
21644;BME280;10983;51.982;9.226;2023-10-19T18:18:48;97841.03;;;13.76;100.00
21644;BME280;10983;51.982;9.226;2023-10-19T18:21:22;97817.94;;;13.49;100.00
21644;BME280;10983;51.982;9.226;2023-10-19T18:23:49;97864.72;;;13.69;100.00
21644;BME280;10983;51.982;9.226;2023-10-19T18:26:24;97879.72;;;13.56;100.00
21644;BME280;10983;51.982;9.226;2023-10-19T18:28:51;97924.03;;;13.79;100.00
21644;BME280;10983;51.982;9.226;2023-10-19T18:31:19;97927.13;;;13.73;100.00
21644;BME280;10983;51.982;9.226;2023-10-19T18:33:51;97944.22;;;13.72;100.00
21644;BME280;10983;51.982;9.226;2023-10-19T18:36:23;97920.50;;;13.48;100.00
21644;BME280;10983;51.982;9.226;2023-10-19T18:39:01;97956.50;;;13.73;100.00
21644;BME280;10983;51.982;9.226;2023-10-19T18:41:30;97948.06;;;13.57;100.00
21644;BME280;10983;51.982;9.226;2023-10-19T18:43:58;97955.06;;;13.67;100.00
21644;BME280;10983;51.982;9.226;2023-10-19T18:46:29;97945.66;;;13.69;100.00
21644;BME280;10983;51.982;9.226;2023-10-19T18:48:58;97941.53;;;13.50;100.00
21644;BME280;10983;51.982;9.226;2023-10-19T18:51:27;98019.19;;;13.53;100.00
21644;BME280;10983;51.982;9.226;2023-10-19T18:53:57;98026.97;;;13.50;100.00
21644;BME280;10983;51.982;9.226;2023-10-19T18:56:25;98026.69;;;13.38;100.00
21644;BME280;10983;51.982;9.226;2023-10-19T18:58:54;98034.03;;;13.33;100.00
21644;BME280;10983;51.982;9.226;2023-10-19T19:01:23;98043.72;;;13.29;100.00
21644;BME280;10983;51.982;9.226;2023-10-19T19:03:56;98041.81;;;13.16;100.00
21644;BME280;10983;51.982;9.226;2023-10-19T19:06:27;98053.00;;;13.31;100.00
21644;BME280;10983;51.982;9.226;2023-10-19T19:09:07;98050.94;;;13.15;100.00
21644;BME280;10983;51.982;9.226;2023-10-19T19:11:38;98072.66;;;13.22;100.00
21644;BME280;10983;51.982;9.226;2023-10-19T19:14:09;98080.97;;;13.34;100.00
21644;BME280;10983;51.982;9.226;2023-10-19T19:16:37;98097.00;;;13.47;100.00
21644;BME280;10983;51.982;9.226;2023-10-19T19:19:05;98090.47;;;13.40;100.00
21644;BME280;10983;51.982;9.226;2023-10-19T19:21:33;98087.41;;;13.33;100.00
21644;BME280;10983;51.982;9.226;2023-10-19T19:24:01;98097.31;;;13.46;100.00
21644;BME280;10983;51.982;9.226;2023-10-19T19:26:31;98097.47;;;13.49;100.00
21644;BME280;10983;51.982;9.226;2023-10-19T19:29:01;98098.88;;;13.46;100.00
21644;BME280;10983;51.982;9.226;2023-10-19T19:31:40;98102.03;;;13.35;100.00
21644;BME280;10983;51.982;9.226;2023-10-19T19:34:07;98106.78;;;13.38;100.00
21644;BME280;10983;51.982;9.226;2023-10-19T19:36:42;98110.34;;;13.34;100.00
21644;BME280;10983;51.982;9.226;2023-10-19T19:39:10;98109.97;;;13.40;100.00
21644;BME280;10983;51.982;9.226;2023-10-19T19:41:44;98094.69;;;13.14;100.00
21644;BME280;10983;51.982;9.226;2023-10-19T19:44:13;98100.06;;;13.27;100.00
21644;BME280;10983;51.982;9.226;2023-10-19T19:46:42;98092.25;;;13.44;100.00
21644;BME280;10983;51.982;9.226;2023-10-19T19:49:12;98088.00;;;13.30;100.00
21644;BME280;10983;51.982;9.226;2023-10-19T19:51:50;98051.50;;;13.12;100.00
21644;BME280;10983;51.982;9.226;2023-10-19T19:54:23;98075.25;;;13.27;100.00
21644;BME280;10983;51.982;9.226;2023-10-19T19:56:50;98078.09;;;13.30;100.00
21644;BME280;10983;51.982;9.226;2023-10-19T19:59:24;98008.97;;;12.75;100.00
21644;BME280;10983;51.982;9.226;2023-10-19T20:01:55;98076.34;;;13.26;100.00
21644;BME280;10983;51.982;9.226;2023-10-19T20:04:24;98074.75;;;13.25;100.00
21644;BME280;10983;51.982;9.226;2023-10-19T20:06:54;98071.47;;;13.14;100.00
21644;BME280;10983;51.982;9.226;2023-10-19T20:09:27;98041.38;;;12.82;100.00
21644;BME280;10983;51.982;9.226;2023-10-19T20:12:01;98059.63;;;13.07;100.00